sensor_id;sensor_type;location;lat;lon;timestamp;P1;durP1;ratioP1;P2;durP2;ratioP2
40745;SDS011;26454;51.164;4.488;2022-08-14T00:00:28;5.30;;;2.22;;
40745;SDS011;26454;51.164;4.488;2022-08-14T00:02:54;7.10;;;2.95;;
40745;SDS011;26454;51.164;4.488;2022-08-14T00:05:20;3.85;;;3.00;;
40745;SDS011;26454;51.164;4.488;2022-08-14T00:07:47;5.68;;;2.20;;
40745;SDS011;26454;51.164;4.488;2022-08-14T00:10:14;3.03;;;2.75;;
40745;SDS011;26454;51.164;4.488;2022-08-14T00:12:44;3.55;;;2.65;;
40745;SDS011;26454;51.164;4.488;2022-08-14T00:15:14;4.13;;;2.72;;
40745;SDS011;26454;51.164;4.488;2022-08-14T00:17:40;5.43;;;2.70;;
40745;SDS011;26454;51.164;4.488;2022-08-14T00:20:07;6.03;;;3.08;;
40745;SDS011;26454;51.164;4.488;2022-08-14T00:22:33;3.40;;;3.10;;
40745;SDS011;26454;51.164;4.488;2022-08-14T00:24:59;4.35;;;2.47;;
40745;SDS011;26454;51.164;4.488;2022-08-14T00:27:25;8.65;;;3.40;;
40745;SDS011;26454;51.164;4.488;2022-08-14T00:29:52;3.35;;;3.05;;
40745;SDS011;26454;51.164;4.488;2022-08-14T00:32:18;7.32;;;3.88;;
40745;SDS011;26454;51.164;4.488;2022-08-14T00:34:44;4.35;;;2.80;;
40745;SDS011;26454;51.164;4.488;2022-08-14T00:37:10;4.75;;;3.30;;
40745;SDS011;26454;51.164;4.488;2022-08-14T00:39:36;3.67;;;3.15;;
40745;SDS011;26454;51.164;4.488;2022-08-14T00:42:03;4.57;;;3.55;;
40745;SDS011;26454;51.164;4.488;2022-08-14T00:44:29;4.85;;;3.20;;
40745;SDS011;26454;51.164;4.488;2022-08-14T00:46:55;6.95;;;3.08;;
40745;SDS011;26454;51.164;4.488;2022-08-14T00:49:22;4.55;;;3.00;;
40745;SDS011;26454;51.164;4.488;2022-08-14T00:51:48;5.10;;;3.60;;
40745;SDS011;26454;51.164;4.488;2022-08-14T00:54:16;3.92;;;3.30;;
40745;SDS011;26454;51.164;4.488;2022-08-14T00:56:43;3.90;;;3.28;;
40745;SDS011;26454;51.164;4.488;2022-08-14T00:59:10;6.57;;;3.05;;
40745;SDS011;26454;51.164;4.488;2022-08-14T01:01:37;6.15;;;3.60;;
40745;SDS011;26454;51.164;4.488;2022-08-14T01:04:03;7.97;;;3.70;;
40745;SDS011;26454;51.164;4.488;2022-08-14T01:06:29;4.70;;;3.72;;
40745;SDS011;26454;51.164;4.488;2022-08-14T01:08:57;4.35;;;3.95;;
40745;SDS011;26454;51.164;4.488;2022-08-14T01:11:25;4.15;;;3.35;;
40745;SDS011;26454;51.164;4.488;2022-08-14T01:13:51;7.07;;;3.33;;
40745;SDS011;26454;51.164;4.488;2022-08-14T01:16:23;4.10;;;3.70;;
40745;SDS011;26454;51.164;4.488;2022-08-14T01:18:49;8.48;;;3.58;;
40745;SDS011;26454;51.164;4.488;2022-08-14T01:21:31;3.47;;;3.00;;
40745;SDS011;26454;51.164;4.488;2022-08-14T01:23:59;3.15;;;2.85;;
40745;SDS011;26454;51.164;4.488;2022-08-14T01:26:27;5.68;;;3.60;;
40745;SDS011;26454;51.164;4.488;2022-08-14T01:28:55;3.50;;;2.97;;
40745;SDS011;26454;51.164;4.488;2022-08-14T01:31:24;4.82;;;3.25;;
40745;SDS011;26454;51.164;4.488;2022-08-14T01:33:51;4.07;;;3.22;;
40745;SDS011;26454;51.164;4.488;2022-08-14T01:36:19;4.43;;;4.03;;
40745;SDS011;26454;51.164;4.488;2022-08-14T01:38:45;5.20;;;3.78;;
40745;SDS011;26454;51.164;4.488;2022-08-14T01:41:14;4.95;;;3.60;;
40745;SDS011;26454;51.164;4.488;2022-08-14T01:43:42;6.20;;;3.40;;
40745;SDS011;26454;51.164;4.488;2022-08-14T01:46:09;3.95;;;3.60;;
40745;SDS011;26454;51.164;4.488;2022-08-14T01:48:35;6.95;;;3.60;;
40745;SDS011;26454;51.164;4.488;2022-08-14T01:51:02;4.00;;;3.45;;
40745;SDS011;26454;51.164;4.488;2022-08-14T01:53:28;5.38;;;3.42;;
40745;SDS011;26454;51.164;4.488;2022-08-14T01:55:58;6.47;;;3.60;;
40745;SDS011;26454;51.164;4.488;2022-08-14T01:58:27;5.07;;;3.45;;
40745;SDS011;26454;51.164;4.488;2022-08-14T02:00:54;4.22;;;3.72;;
40745;SDS011;26454;51.164;4.488;2022-08-14T02:03:21;3.60;;;3.30;;
40745;SDS011;26454;51.164;4.488;2022-08-14T02:05:47;6.45;;;3.63;;
40745;SDS011;26454;51.164;4.488;2022-08-14T02:08:13;4.75;;;3.70;;
40745;SDS011;26454;51.164;4.488;2022-08-14T02:10:41;4.18;;;3.88;;
40745;SDS011;26454;51.164;4.488;2022-08-14T02:13:07;5.28;;;3.80;;
40745;SDS011;26454;51.164;4.488;2022-08-14T02:15:35;6.85;;;4.03;;
40745;SDS011;26454;51.164;4.488;2022-08-14T02:20:31;6.15;;;4.30;;
40745;SDS011;26454;51.164;4.488;2022-08-14T02:22:58;4.60;;;4.20;;
40745;SDS011;26454;51.164;4.488;2022-08-14T02:25:25;6.43;;;4.47;;
40745;SDS011;26454;51.164;4.488;2022-08-14T02:27:51;4.28;;;3.90;;
40745;SDS011;26454;51.164;4.488;2022-08-14T02:30:20;6.43;;;4.40;;
40745;SDS011;26454;51.164;4.488;2022-08-14T02:32:46;4.40;;;4.00;;
40745;SDS011;26454;51.164;4.488;2022-08-14T02:35:14;4.00;;;3.70;;
40745;SDS011;26454;51.164;4.488;2022-08-14T02:37:42;6.55;;;4.25;;
40745;SDS011;26454;51.164;4.488;2022-08-14T02:40:08;4.90;;;4.40;;
40745;SDS011;26454;51.164;4.488;2022-08-14T02:42:35;4.55;;;4.15;;
40745;SDS011;26454;51.164;4.488;2022-08-14T02:45:01;5.93;;;4.00;;
40745;SDS011;26454;51.164;4.488;2022-08-14T02:47:27;5.80;;;4.13;;
40745;SDS011;26454;51.164;4.488;2022-08-14T02:49:54;6.65;;;4.45;;
40745;SDS011;26454;51.164;4.488;2022-08-14T02:52:21;4.40;;;4.00;;
40745;SDS011;26454;51.164;4.488;2022-08-14T02:54:47;4.47;;;4.07;;
40745;SDS011;26454;51.164;4.488;2022-08-14T02:57:13;8.77;;;4.85;;
40745;SDS011;26454;51.164;4.488;2022-08-14T02:59:39;5.50;;;4.28;;
40745;SDS011;26454;51.164;4.488;2022-08-14T03:02:05;5.65;;;5.05;;
40745;SDS011;26454;51.164;4.488;2022-08-14T03:04:33;6.85;;;5.18;;
40745;SDS011;26454;51.164;4.488;2022-08-14T03:06:59;10.43;;;6.30;;
40745;SDS011;26454;51.164;4.488;2022-08-14T03:09:25;5.85;;;5.28;;
40745;SDS011;26454;51.164;4.488;2022-08-14T03:11:51;7.18;;;5.68;;
40745;SDS011;26454;51.164;4.488;2022-08-14T03:14:17;5.65;;;5.07;;
40745;SDS011;26454;51.164;4.488;2022-08-14T03:16:45;5.55;;;5.05;;
40745;SDS011;26454;51.164;4.488;2022-08-14T03:19:14;6.28;;;5.30;;
40745;SDS011;26454;51.164;4.488;2022-08-14T03:21:40;6.15;;;5.03;;
40745;SDS011;26454;51.164;4.488;2022-08-14T03:24:07;5.85;;;5.35;;
40745;SDS011;26454;51.164;4.488;2022-08-14T03:26:35;9.55;;;6.28;;
40745;SDS011;26454;51.164;4.488;2022-08-14T03:29:04;7.25;;;5.80;;
40745;SDS011;26454;51.164;4.488;2022-08-14T03:31:30;5.85;;;5.32;;
40745;SDS011;26454;51.164;4.488;2022-08-14T03:33:57;8.77;;;5.95;;
40745;SDS011;26454;51.164;4.488;2022-08-14T03:36:23;6.53;;;5.75;;
40745;SDS011;26454;51.164;4.488;2022-08-14T03:38:50;11.15;;;6.40;;
40745;SDS011;26454;51.164;4.488;2022-08-14T03:41:20;7.22;;;6.53;;
40745;SDS011;26454;51.164;4.488;2022-08-14T03:43:47;7.18;;;6.13;;
40745;SDS011;26454;51.164;4.488;2022-08-14T03:46:17;7.35;;;6.18;;
40745;SDS011;26454;51.164;4.488;2022-08-14T03:48:46;8.13;;;7.32;;
40745;SDS011;26454;51.164;4.488;2022-08-14T03:51:13;7.20;;;6.50;;
40745;SDS011;26454;51.164;4.488;2022-08-14T03:53:40;7.00;;;6.30;;
40745;SDS011;26454;51.164;4.488;2022-08-14T03:56:07;6.32;;;5.82;;
40745;SDS011;26454;51.164;4.488;2022-08-14T03:58:38;9.43;;;6.82;;
40745;SDS011;26454;51.164;4.488;2022-08-14T04:01:06;9.18;;;6.32;;
40745;SDS011;26454;51.164;4.488;2022-08-14T04:03:33;8.32;;;6.10;;
40745;SDS011;26454;51.164;4.488;2022-08-14T04:05:59;8.80;;;6.50;;
40745;SDS011;26454;51.164;4.488;2022-08-14T04:08:25;11.00;;;6.82;;
40745;SDS011;26454;51.164;4.488;2022-08-14T04:10:51;7.57;;;6.88;;
40745;SDS011;26454;51.164;4.488;2022-08-14T04:13:19;6.63;;;5.97;;
40745;SDS011;26454;51.164;4.488;2022-08-14T04:15:45;6.72;;;6.13;;
40745;SDS011;26454;51.164;4.488;2022-08-14T04:18:12;9.18;;;5.90;;
40745;SDS011;26454;51.164;4.488;2022-08-14T04:20:39;7.15;;;6.55;;
40745;SDS011;26454;51.164;4.488;2022-08-14T04:23:06;7.30;;;6.60;;
40745;SDS011;26454;51.164;4.488;2022-08-14T04:25:33;6.88;;;6.05;;
40745;SDS011;26454;51.164;4.488;2022-08-14T04:28:00;7.72;;;6.68;;
40745;SDS011;26454;51.164;4.488;2022-08-14T04:30:27;6.97;;;6.28;;
40745;SDS011;26454;51.164;4.488;2022-08-14T04:32:54;9.05;;;5.95;;
40745;SDS011;26454;51.164;4.488;2022-08-14T04:35:20;9.18;;;6.50;;
40745;SDS011;26454;51.164;4.488;2022-08-14T04:37:46;7.38;;;6.68;;
40745;SDS011;26454;51.164;4.488;2022-08-14T04:40:30;8.52;;;6.72;;
40745;SDS011;26454;51.164;4.488;2022-08-14T04:48:16;7.05;;;6.45;;
40745;SDS011;26454;51.164;4.488;2022-08-14T04:50:47;7.88;;;7.07;;
40745;SDS011;26454;51.164;4.488;2022-08-14T04:53:15;7.03;;;6.30;;
40745;SDS011;26454;51.164;4.488;2022-08-14T04:55:42;8.77;;;6.43;;
40745;SDS011;26454;51.164;4.488;2022-08-14T04:58:11;8.30;;;6.85;;
40745;SDS011;26454;51.164;4.488;2022-08-14T05:00:37;8.35;;;5.75;;
40745;SDS011;26454;51.164;4.488;2022-08-14T05:03:04;9.65;;;6.38;;
40745;SDS011;26454;51.164;4.488;2022-08-14T05:05:30;8.57;;;5.93;;
40745;SDS011;26454;51.164;4.488;2022-08-14T05:08:02;8.85;;;6.45;;
40745;SDS011;26454;51.164;4.488;2022-08-14T05:10:34;8.10;;;5.72;;
40745;SDS011;26454;51.164;4.488;2022-08-14T05:13:00;6.15;;;5.55;;
40745;SDS011;26454;51.164;4.488;2022-08-14T05:15:29;6.97;;;6.35;;
40745;SDS011;26454;51.164;4.488;2022-08-14T05:17:58;7.22;;;6.57;;
40745;SDS011;26454;51.164;4.488;2022-08-14T05:20:26;7.88;;;6.47;;
40745;SDS011;26454;51.164;4.488;2022-08-14T05:22:52;9.77;;;6.50;;
40745;SDS011;26454;51.164;4.488;2022-08-14T05:25:18;7.40;;;6.15;;
40745;SDS011;26454;51.164;4.488;2022-08-14T05:27:44;7.50;;;6.38;;
40745;SDS011;26454;51.164;4.488;2022-08-14T05:30:10;6.68;;;6.07;;
40745;SDS011;26454;51.164;4.488;2022-08-14T05:32:37;9.27;;;6.60;;
40745;SDS011;26454;51.164;4.488;2022-08-14T05:35:03;7.40;;;6.65;;
40745;SDS011;26454;51.164;4.488;2022-08-14T05:37:29;5.88;;;5.30;;
40745;SDS011;26454;51.164;4.488;2022-08-14T05:39:56;6.07;;;5.45;;
40745;SDS011;26454;51.164;4.488;2022-08-14T05:42:22;8.00;;;6.18;;
40745;SDS011;26454;51.164;4.488;2022-08-14T05:44:49;8.90;;;5.97;;
40745;SDS011;26454;51.164;4.488;2022-08-14T05:47:14;5.45;;;4.95;;
40745;SDS011;26454;51.164;4.488;2022-08-14T05:49:40;9.60;;;5.13;;
40745;SDS011;26454;51.164;4.488;2022-08-14T05:52:06;6.95;;;5.65;;
40745;SDS011;26454;51.164;4.488;2022-08-14T05:54:32;5.88;;;5.20;;
40745;SDS011;26454;51.164;4.488;2022-08-14T05:56:59;9.90;;;5.35;;
40745;SDS011;26454;51.164;4.488;2022-08-14T05:59:25;5.20;;;4.80;;
40745;SDS011;26454;51.164;4.488;2022-08-14T06:01:51;8.50;;;5.13;;
40745;SDS011;26454;51.164;4.488;2022-08-14T06:04:17;6.88;;;4.82;;
40745;SDS011;26454;51.164;4.488;2022-08-14T06:06:43;5.97;;;5.00;;
40745;SDS011;26454;51.164;4.488;2022-08-14T06:09:10;7.35;;;5.25;;
40745;SDS011;26454;51.164;4.488;2022-08-14T06:11:36;4.07;;;3.75;;
40745;SDS011;26454;51.164;4.488;2022-08-14T06:14:03;5.00;;;3.92;;
40745;SDS011;26454;51.164;4.488;2022-08-14T06:16:29;5.32;;;4.82;;
40745;SDS011;26454;51.164;4.488;2022-08-14T06:18:55;5.15;;;4.45;;
40745;SDS011;26454;51.164;4.488;2022-08-14T06:21:21;5.30;;;4.45;;
40745;SDS011;26454;51.164;4.488;2022-08-14T06:23:47;4.40;;;4.00;;
40745;SDS011;26454;51.164;4.488;2022-08-14T06:26:13;5.05;;;4.40;;
40745;SDS011;26454;51.164;4.488;2022-08-14T06:28:39;7.90;;;4.55;;
40745;SDS011;26454;51.164;4.488;2022-08-14T06:31:05;4.22;;;3.85;;
40745;SDS011;26454;51.164;4.488;2022-08-14T06:33:31;4.38;;;3.67;;
40745;SDS011;26454;51.164;4.488;2022-08-14T06:35:57;4.65;;;4.20;;
40745;SDS011;26454;51.164;4.488;2022-08-14T06:38:23;3.92;;;3.63;;
40745;SDS011;26454;51.164;4.488;2022-08-14T06:40:50;4.18;;;3.78;;
40745;SDS011;26454;51.164;4.488;2022-08-14T06:43:17;4.95;;;4.50;;
40745;SDS011;26454;51.164;4.488;2022-08-14T06:45:44;4.82;;;4.00;;
40745;SDS011;26454;51.164;4.488;2022-08-14T06:48:13;4.63;;;4.22;;
40745;SDS011;26454;51.164;4.488;2022-08-14T06:50:40;6.33;;;4.53;;
40745;SDS011;26454;51.164;4.488;2022-08-14T06:53:06;4.80;;;4.25;;
40745;SDS011;26454;51.164;4.488;2022-08-14T06:55:32;9.10;;;4.40;;
40745;SDS011;26454;51.164;4.488;2022-08-14T06:57:58;5.18;;;4.20;;
40745;SDS011;26454;51.164;4.488;2022-08-14T07:00:25;5.07;;;3.85;;
40745;SDS011;26454;51.164;4.488;2022-08-14T07:02:52;10.80;;;4.45;;
40745;SDS011;26454;51.164;4.488;2022-08-14T07:05:31;5.23;;;3.50;;
40745;SDS011;26454;51.164;4.488;2022-08-14T07:10:53;4.70;;;4.22;;
40745;SDS011;26454;51.164;4.488;2022-08-14T07:13:21;4.10;;;3.70;;
40745;SDS011;26454;51.164;4.488;2022-08-14T07:15:48;5.40;;;4.10;;
40745;SDS011;26454;51.164;4.488;2022-08-14T07:18:22;4.82;;;4.10;;
40745;SDS011;26454;51.164;4.488;2022-08-14T07:20:49;5.97;;;3.88;;
40745;SDS011;26454;51.164;4.488;2022-08-14T07:23:15;6.28;;;3.95;;
40745;SDS011;26454;51.164;4.488;2022-08-14T07:25:42;5.30;;;4.60;;
40745;SDS011;26454;51.164;4.488;2022-08-14T07:28:14;4.22;;;3.83;;
40745;SDS011;26454;51.164;4.488;2022-08-14T07:30:41;5.47;;;4.28;;
40745;SDS011;26454;51.164;4.488;2022-08-14T07:33:07;4.40;;;3.80;;
40745;SDS011;26454;51.164;4.488;2022-08-14T07:35:34;4.15;;;3.63;;
40745;SDS011;26454;51.164;4.488;2022-08-14T07:38:01;5.03;;;3.90;;
40745;SDS011;26454;51.164;4.488;2022-08-14T07:40:27;3.90;;;3.60;;
40745;SDS011;26454;51.164;4.488;2022-08-14T07:42:53;3.85;;;3.42;;
40745;SDS011;26454;51.164;4.488;2022-08-14T07:45:19;3.83;;;3.42;;
40745;SDS011;26454;51.164;4.488;2022-08-14T07:47:45;3.70;;;3.38;;
40745;SDS011;26454;51.164;4.488;2022-08-14T07:50:13;4.53;;;3.70;;
40745;SDS011;26454;51.164;4.488;2022-08-14T07:52:40;3.58;;;3.28;;
40745;SDS011;26454;51.164;4.488;2022-08-14T07:55:07;3.95;;;3.60;;
40745;SDS011;26454;51.164;4.488;2022-08-14T07:57:33;4.40;;;3.67;;
40745;SDS011;26454;51.164;4.488;2022-08-14T07:59:59;4.03;;;3.72;;
40745;SDS011;26454;51.164;4.488;2022-08-14T08:02:27;4.05;;;3.75;;
40745;SDS011;26454;51.164;4.488;2022-08-14T08:04:55;4.20;;;3.40;;
40745;SDS011;26454;51.164;4.488;2022-08-14T08:07:24;4.20;;;3.88;;
40745;SDS011;26454;51.164;4.488;2022-08-14T08:09:52;4.85;;;4.38;;
40745;SDS011;26454;51.164;4.488;2022-08-14T08:12:19;4.40;;;4.03;;
40745;SDS011;26454;51.164;4.488;2022-08-14T08:14:46;5.57;;;3.70;;
40745;SDS011;26454;51.164;4.488;2022-08-14T08:17:13;7.13;;;4.20;;
40745;SDS011;26454;51.164;4.488;2022-08-14T08:19:39;5.75;;;3.88;;
40745;SDS011;26454;51.164;4.488;2022-08-14T08:22:05;4.25;;;3.85;;
40745;SDS011;26454;51.164;4.488;2022-08-14T08:24:33;4.57;;;3.80;;
40745;SDS011;26454;51.164;4.488;2022-08-14T08:26:59;5.20;;;3.33;;
40745;SDS011;26454;51.164;4.488;2022-08-14T08:29:26;4.85;;;3.80;;
40745;SDS011;26454;51.164;4.488;2022-08-14T08:31:52;4.10;;;3.60;;
40745;SDS011;26454;51.164;4.488;2022-08-14T08:34:19;5.35;;;3.55;;
40745;SDS011;26454;51.164;4.488;2022-08-14T08:36:45;5.18;;;3.67;;
40745;SDS011;26454;51.164;4.488;2022-08-14T08:39:12;3.70;;;3.40;;
40745;SDS011;26454;51.164;4.488;2022-08-14T08:41:42;5.65;;;3.72;;
40745;SDS011;26454;51.164;4.488;2022-08-14T08:44:08;7.95;;;3.65;;
40745;SDS011;26454;51.164;4.488;2022-08-14T08:46:35;4.25;;;3.90;;
40745;SDS011;26454;51.164;4.488;2022-08-14T08:49:01;6.70;;;3.67;;
40745;SDS011;26454;51.164;4.488;2022-08-14T08:51:29;6.43;;;4.00;;
40745;SDS011;26454;51.164;4.488;2022-08-14T08:54:00;4.22;;;3.63;;
40745;SDS011;26454;51.164;4.488;2022-08-14T08:56:42;5.20;;;3.35;;
40745;SDS011;26454;51.164;4.488;2022-08-14T08:59:24;4.32;;;3.35;;
40745;SDS011;26454;51.164;4.488;2022-08-14T09:01:52;6.43;;;3.35;;
40745;SDS011;26454;51.164;4.488;2022-08-14T09:04:19;5.15;;;3.40;;
40745;SDS011;26454;51.164;4.488;2022-08-14T09:06:46;4.95;;;3.65;;
40745;SDS011;26454;51.164;4.488;2022-08-14T09:11:53;4.25;;;3.22;;
40745;SDS011;26454;51.164;4.488;2022-08-14T09:14:21;5.93;;;3.55;;
40745;SDS011;26454;51.164;4.488;2022-08-14T09:16:48;3.80;;;3.45;;
40745;SDS011;26454;51.164;4.488;2022-08-14T09:19:14;5.13;;;3.40;;
40745;SDS011;26454;51.164;4.488;2022-08-14T09:21:40;8.13;;;4.07;;
40745;SDS011;26454;51.164;4.488;2022-08-14T09:24:07;5.53;;;3.47;;
40745;SDS011;26454;51.164;4.488;2022-08-14T09:26:33;5.72;;;3.42;;
40745;SDS011;26454;51.164;4.488;2022-08-14T09:29:00;3.50;;;2.60;;
40745;SDS011;26454;51.164;4.488;2022-08-14T09:31:26;6.03;;;3.22;;
40745;SDS011;26454;51.164;4.488;2022-08-14T09:36:36;5.93;;;2.55;;
40745;SDS011;26454;51.164;4.488;2022-08-14T09:41:57;3.20;;;2.90;;
40745;SDS011;26454;51.164;4.488;2022-08-14T09:44:32;4.28;;;2.60;;
40745;SDS011;26454;51.164;4.488;2022-08-14T09:47:02;7.30;;;3.25;;
40745;SDS011;26454;51.164;4.488;2022-08-14T09:49:31;3.28;;;2.97;;
40745;SDS011;26454;51.164;4.488;2022-08-14T09:52:05;2.90;;;2.60;;
40745;SDS011;26454;51.164;4.488;2022-08-14T09:54:39;2.72;;;2.53;;
40745;SDS011;26454;51.164;4.488;2022-08-14T09:57:07;2.85;;;2.58;;
40745;SDS011;26454;51.164;4.488;2022-08-14T09:59:42;4.90;;;2.75;;
40745;SDS011;26454;51.164;4.488;2022-08-14T10:02:26;4.22;;;2.85;;
40745;SDS011;26454;51.164;4.488;2022-08-14T10:05:02;2.80;;;2.53;;
40745;SDS011;26454;51.164;4.488;2022-08-14T10:07:32;2.75;;;2.20;;
40745;SDS011;26454;51.164;4.488;2022-08-14T10:10:00;2.28;;;2.17;;
40745;SDS011;26454;51.164;4.488;2022-08-14T10:15:16;5.80;;;2.60;;
40745;SDS011;26454;51.164;4.488;2022-08-14T10:17:43;5.47;;;2.40;;
40745;SDS011;26454;51.164;4.488;2022-08-14T10:20:10;2.65;;;2.40;;
40745;SDS011;26454;51.164;4.488;2022-08-14T10:22:37;5.00;;;2.42;;
40745;SDS011;26454;51.164;4.488;2022-08-14T10:25:11;4.30;;;2.30;;
40745;SDS011;26454;51.164;4.488;2022-08-14T10:27:39;2.25;;;2.05;;
40745;SDS011;26454;51.164;4.488;2022-08-14T10:30:11;2.95;;;2.00;;
40745;SDS011;26454;51.164;4.488;2022-08-14T10:32:46;4.60;;;1.15;;
40745;SDS011;26454;51.164;4.488;2022-08-14T10:35:13;2.35;;;1.55;;
40745;SDS011;26454;51.164;4.488;2022-08-14T10:37:42;1.58;;;1.40;;
40745;SDS011;26454;51.164;4.488;2022-08-14T10:40:12;3.00;;;1.70;;
40745;SDS011;26454;51.164;4.488;2022-08-14T10:42:39;2.47;;;1.75;;
40745;SDS011;26454;51.164;4.488;2022-08-14T10:45:22;1.95;;;1.75;;
40745;SDS011;26454;51.164;4.488;2022-08-14T10:47:49;2.15;;;1.95;;
40745;SDS011;26454;51.164;4.488;2022-08-14T10:50:27;2.33;;;1.70;;
40745;SDS011;26454;51.164;4.488;2022-08-14T10:52:55;2.92;;;1.70;;
40745;SDS011;26454;51.164;4.488;2022-08-14T10:55:23;2.58;;;1.90;;
40745;SDS011;26454;51.164;4.488;2022-08-14T10:57:56;2.65;;;1.45;;
40745;SDS011;26454;51.164;4.488;2022-08-14T11:00:22;1.83;;;1.52;;
40745;SDS011;26454;51.164;4.488;2022-08-14T11:02:58;1.70;;;1.60;;
40745;SDS011;26454;51.164;4.488;2022-08-14T11:05:25;1.98;;;1.45;;
40745;SDS011;26454;51.164;4.488;2022-08-14T11:07:58;2.92;;;1.42;;
40745;SDS011;26454;51.164;4.488;2022-08-14T11:10:37;1.67;;;1.58;;
40745;SDS011;26454;51.164;4.488;2022-08-14T11:13:03;4.53;;;1.87;;
40745;SDS011;26454;51.164;4.488;2022-08-14T11:15:31;1.70;;;1.60;;
40745;SDS011;26454;51.164;4.488;2022-08-14T11:17:57;1.80;;;1.65;;
40745;SDS011;26454;51.164;4.488;2022-08-14T11:20:23;3.50;;;1.20;;
40745;SDS011;26454;51.164;4.488;2022-08-14T11:22:51;3.70;;;2.05;;
40745;SDS011;26454;51.164;4.488;2022-08-14T11:25:18;1.60;;;1.50;;
40745;SDS011;26454;51.164;4.488;2022-08-14T11:27:47;3.05;;;1.30;;
40745;SDS011;26454;51.164;4.488;2022-08-14T11:30:14;3.22;;;1.92;;
40745;SDS011;26454;51.164;4.488;2022-08-14T11:32:44;1.92;;;1.83;;
40745;SDS011;26454;51.164;4.488;2022-08-14T11:35:13;2.42;;;1.58;;
40745;SDS011;26454;51.164;4.488;2022-08-14T11:37:47;3.45;;;1.55;;
40745;SDS011;26454;51.164;4.488;2022-08-14T11:40:14;2.53;;;1.70;;
40745;SDS011;26454;51.164;4.488;2022-08-14T11:42:41;1.23;;;1.13;;
40745;SDS011;26454;51.164;4.488;2022-08-14T11:45:10;1.58;;;1.48;;
40745;SDS011;26454;51.164;4.488;2022-08-14T11:47:37;1.33;;;1.23;;
40745;SDS011;26454;51.164;4.488;2022-08-14T11:50:12;5.25;;;1.40;;
40745;SDS011;26454;51.164;4.488;2022-08-14T11:52:39;1.35;;;1.25;;
40745;SDS011;26454;51.164;4.488;2022-08-14T11:55:08;3.47;;;1.60;;
40745;SDS011;26454;51.164;4.488;2022-08-14T11:57:36;1.30;;;1.20;;
40745;SDS011;26454;51.164;4.488;2022-08-14T12:00:05;3.28;;;1.88;;
40745;SDS011;26454;51.164;4.488;2022-08-14T12:02:32;2.65;;;1.67;;
40745;SDS011;26454;51.164;4.488;2022-08-14T12:04:58;3.63;;;1.10;;
40745;SDS011;26454;51.164;4.488;2022-08-14T12:07:24;3.75;;;1.50;;
40745;SDS011;26454;51.164;4.488;2022-08-14T12:09:51;1.70;;;1.58;;
40745;SDS011;26454;51.164;4.488;2022-08-14T12:12:19;2.45;;;1.08;;
40745;SDS011;26454;51.164;4.488;2022-08-14T12:14:50;2.00;;;1.40;;
40745;SDS011;26454;51.164;4.488;2022-08-14T12:17:19;4.78;;;1.33;;
40745;SDS011;26454;51.164;4.488;2022-08-14T12:19:46;2.97;;;1.00;;
40745;SDS011;26454;51.164;4.488;2022-08-14T12:22:13;2.17;;;1.38;;
40745;SDS011;26454;51.164;4.488;2022-08-14T12:24:40;2.85;;;1.30;;
40745;SDS011;26454;51.164;4.488;2022-08-14T12:27:07;3.05;;;1.23;;
40745;SDS011;26454;51.164;4.488;2022-08-14T12:29:34;1.30;;;1.08;;
40745;SDS011;26454;51.164;4.488;2022-08-14T12:32:00;2.05;;;1.20;;
40745;SDS011;26454;51.164;4.488;2022-08-14T12:34:29;2.60;;;1.40;;
40745;SDS011;26454;51.164;4.488;2022-08-14T12:37:03;1.50;;;1.20;;
40745;SDS011;26454;51.164;4.488;2022-08-14T12:39:30;1.20;;;1.10;;
40745;SDS011;26454;51.164;4.488;2022-08-14T12:41:57;5.70;;;2.42;;
40745;SDS011;26454;51.164;4.488;2022-08-14T12:44:31;3.92;;;1.30;;
40745;SDS011;26454;51.164;4.488;2022-08-14T12:47:14;1.85;;;1.25;;
40745;SDS011;26454;51.164;4.488;2022-08-14T12:49:49;3.47;;;1.40;;
40745;SDS011;26454;51.164;4.488;2022-08-14T12:52:27;1.75;;;1.35;;
40745;SDS011;26454;51.164;4.488;2022-08-14T12:54:56;1.92;;;1.52;;
40745;SDS011;26454;51.164;4.488;2022-08-14T12:57:31;2.95;;;1.40;;
40745;SDS011;26454;51.164;4.488;2022-08-14T13:00:06;1.58;;;1.20;;
40745;SDS011;26454;51.164;4.488;2022-08-14T13:02:35;3.25;;;1.40;;
40745;SDS011;26454;51.164;4.488;2022-08-14T13:05:02;0.98;;;0.90;;
40745;SDS011;26454;51.164;4.488;2022-08-14T13:07:28;2.05;;;1.17;;
40745;SDS011;26454;51.164;4.488;2022-08-14T13:09:55;1.60;;;1.10;;
40745;SDS011;26454;51.164;4.488;2022-08-14T13:12:22;6.18;;;1.67;;
40745;SDS011;26454;51.164;4.488;2022-08-14T13:14:52;1.58;;;1.30;;
40745;SDS011;26454;51.164;4.488;2022-08-14T13:17:19;1.83;;;1.20;;
40745;SDS011;26454;51.164;4.488;2022-08-14T13:19:46;1.50;;;1.40;;
40745;SDS011;26454;51.164;4.488;2022-08-14T13:22:12;2.00;;;1.25;;
40745;SDS011;26454;51.164;4.488;2022-08-14T13:24:38;3.55;;;1.20;;
40745;SDS011;26454;51.164;4.488;2022-08-14T13:27:05;1.70;;;1.40;;
40745;SDS011;26454;51.164;4.488;2022-08-14T13:29:32;2.50;;;1.10;;
40745;SDS011;26454;51.164;4.488;2022-08-14T13:32:01;4.18;;;1.13;;
40745;SDS011;26454;51.164;4.488;2022-08-14T13:34:29;2.88;;;1.10;;
40745;SDS011;26454;51.164;4.488;2022-08-14T13:36:55;2.28;;;1.17;;
40745;SDS011;26454;51.164;4.488;2022-08-14T13:39:22;2.90;;;1.08;;
40745;SDS011;26454;51.164;4.488;2022-08-14T13:41:48;1.40;;;0.93;;
40745;SDS011;26454;51.164;4.488;2022-08-14T13:44:15;2.75;;;0.85;;
40745;SDS011;26454;51.164;4.488;2022-08-14T13:46:45;3.63;;;1.15;;
40745;SDS011;26454;51.164;4.488;2022-08-14T13:49:11;2.10;;;1.00;;
40745;SDS011;26454;51.164;4.488;2022-08-14T13:51:39;1.40;;;1.00;;
40745;SDS011;26454;51.164;4.488;2022-08-14T13:54:07;1.10;;;1.00;;
40745;SDS011;26454;51.164;4.488;2022-08-14T13:56:36;6.07;;;1.23;;
40745;SDS011;26454;51.164;4.488;2022-08-14T13:59:03;1.42;;;0.77;;
40745;SDS011;26454;51.164;4.488;2022-08-14T14:01:30;1.60;;;1.05;;
40745;SDS011;26454;51.164;4.488;2022-08-14T14:03:58;2.67;;;1.10;;
40745;SDS011;26454;51.164;4.488;2022-08-14T14:06:25;2.22;;;0.90;;
40745;SDS011;26454;51.164;4.488;2022-08-14T14:08:53;3.30;;;0.93;;
40745;SDS011;26454;51.164;4.488;2022-08-14T14:11:19;1.07;;;0.93;;
40745;SDS011;26454;51.164;4.488;2022-08-14T14:13:50;1.27;;;1.00;;
40745;SDS011;26454;51.164;4.488;2022-08-14T14:16:17;2.38;;;0.80;;
40745;SDS011;26454;51.164;4.488;2022-08-14T14:18:45;2.20;;;1.38;;
40745;SDS011;26454;51.164;4.488;2022-08-14T14:21:16;2.53;;;1.20;;
40745;SDS011;26454;51.164;4.488;2022-08-14T14:26:08;1.20;;;1.10;;
40745;SDS011;26454;51.164;4.488;2022-08-14T14:28:35;1.63;;;1.10;;
40745;SDS011;26454;51.164;4.488;2022-08-14T14:31:02;1.83;;;1.50;;
40745;SDS011;26454;51.164;4.488;2022-08-14T14:33:28;2.53;;;1.40;;
40745;SDS011;26454;51.164;4.488;2022-08-14T14:35:55;1.08;;;0.98;;
40745;SDS011;26454;51.164;4.488;2022-08-14T14:38:25;4.35;;;1.15;;
40745;SDS011;26454;51.164;4.488;2022-08-14T14:40:52;1.13;;;1.10;;
40745;SDS011;26454;51.164;4.488;2022-08-14T14:43:20;2.13;;;1.02;;
40745;SDS011;26454;51.164;4.488;2022-08-14T14:45:48;2.00;;;1.20;;
40745;SDS011;26454;51.164;4.488;2022-08-14T14:48:16;2.08;;;1.48;;
40745;SDS011;26454;51.164;4.488;2022-08-14T14:50:44;1.38;;;1.20;;
40745;SDS011;26454;51.164;4.488;2022-08-14T14:53:10;3.63;;;1.60;;
40745;SDS011;26454;51.164;4.488;2022-08-14T14:55:37;1.88;;;1.20;;
40745;SDS011;26454;51.164;4.488;2022-08-14T14:58:06;2.50;;;1.02;;
40745;SDS011;26454;51.164;4.488;2022-08-14T15:00:32;3.42;;;1.20;;
40745;SDS011;26454;51.164;4.488;2022-08-14T15:02:58;1.50;;;1.30;;
40745;SDS011;26454;51.164;4.488;2022-08-14T15:05:24;2.78;;;1.13;;
40745;SDS011;26454;51.164;4.488;2022-08-14T15:07:50;1.17;;;1.10;;
40745;SDS011;26454;51.164;4.488;2022-08-14T15:10:17;2.25;;;0.93;;
40745;SDS011;26454;51.164;4.488;2022-08-14T15:12:44;2.25;;;1.58;;
40745;SDS011;26454;51.164;4.488;2022-08-14T15:15:10;1.38;;;1.10;;